sensor_id;sensor_type;location;lat;lon;timestamp;P1;durP1;ratioP1;P2;durP2;ratioP2
19495;SDS011;9888;48.606;9.630;2023-03-31T00:01:09;10.00;;;2.47;;
19495;SDS011;9888;48.606;9.630;2023-03-31T00:03:36;8.47;;;1.90;;
19495;SDS011;9888;48.606;9.630;2023-03-31T00:06:08;9.23;;;2.50;;
19495;SDS011;9888;48.606;9.630;2023-03-31T00:08:44;9.57;;;2.03;;
19495;SDS011;9888;48.606;9.630;2023-03-31T00:11:15;7.70;;;2.10;;
19495;SDS011;9888;48.606;9.630;2023-03-31T00:13:42;10.07;;;2.50;;
19495;SDS011;9888;48.606;9.630;2023-03-31T00:16:09;6.77;;;1.87;;
19495;SDS011;9888;48.606;9.630;2023-03-31T00:18:36;7.53;;;2.20;;
19495;SDS011;9888;48.606;9.630;2023-03-31T00:21:12;11.27;;;2.40;;
19495;SDS011;9888;48.606;9.630;2023-03-31T00:23:58;7.73;;;1.90;;
19495;SDS011;9888;48.606;9.630;2023-03-31T00:26:26;12.80;;;2.30;;
19495;SDS011;9888;48.606;9.630;2023-03-31T00:28:54;7.80;;;2.17;;
19495;SDS011;9888;48.606;9.630;2023-03-31T00:31:21;7.87;;;2.27;;
19495;SDS011;9888;48.606;9.630;2023-03-31T00:33:49;8.20;;;2.30;;
19495;SDS011;9888;48.606;9.630;2023-03-31T00:36:16;9.27;;;2.10;;
19495;SDS011;9888;48.606;9.630;2023-03-31T00:38:52;8.93;;;2.00;;
19495;SDS011;9888;48.606;9.630;2023-03-31T00:41:28;6.97;;;2.30;;
19495;SDS011;9888;48.606;9.630;2023-03-31T00:44:00;7.57;;;2.20;;
19495;SDS011;9888;48.606;9.630;2023-03-31T00:46:36;8.00;;;2.27;;
19495;SDS011;9888;48.606;9.630;2023-03-31T00:52:16;8.57;;;2.10;;
19495;SDS011;9888;48.606;9.630;2023-03-31T00:54:54;7.90;;;2.33;;
19495;SDS011;9888;48.606;9.630;2023-03-31T00:57:29;8.83;;;2.73;;
19495;SDS011;9888;48.606;9.630;2023-03-31T01:03:25;8.43;;;2.50;;
19495;SDS011;9888;48.606;9.630;2023-03-31T01:06:00;9.33;;;2.03;;
19495;SDS011;9888;48.606;9.630;2023-03-31T01:08:31;11.10;;;2.30;;
19495;SDS011;9888;48.606;9.630;2023-03-31T01:11:04;7.80;;;2.30;;
19495;SDS011;9888;48.606;9.630;2023-03-31T01:13:37;7.83;;;2.00;;
19495;SDS011;9888;48.606;9.630;2023-03-31T01:16:08;8.73;;;2.20;;
19495;SDS011;9888;48.606;9.630;2023-03-31T01:18:35;9.90;;;2.30;;
19495;SDS011;9888;48.606;9.630;2023-03-31T01:21:18;8.97;;;2.60;;
19495;SDS011;9888;48.606;9.630;2023-03-31T01:31:12;8.23;;;2.23;;
19495;SDS011;9888;48.606;9.630;2023-03-31T01:36:57;7.97;;;2.27;;
19495;SDS011;9888;48.606;9.630;2023-03-31T01:43:14;7.90;;;1.97;;
19495;SDS011;9888;48.606;9.630;2023-03-31T01:51:34;11.63;;;2.33;;
19495;SDS011;9888;48.606;9.630;2023-03-31T01:54:20;7.40;;;2.40;;
19495;SDS011;9888;48.606;9.630;2023-03-31T01:57:10;10.47;;;2.40;;
19495;SDS011;9888;48.606;9.630;2023-03-31T01:59:49;8.10;;;2.00;;
19495;SDS011;9888;48.606;9.630;2023-03-31T02:02:31;9.20;;;2.10;;
19495;SDS011;9888;48.606;9.630;2023-03-31T02:05:14;7.63;;;2.50;;
19495;SDS011;9888;48.606;9.630;2023-03-31T02:08:09;7.40;;;1.90;;
19495;SDS011;9888;48.606;9.630;2023-03-31T02:10:44;10.70;;;2.30;;
19495;SDS011;9888;48.606;9.630;2023-03-31T02:13:18;9.23;;;2.60;;
19495;SDS011;9888;48.606;9.630;2023-03-31T02:15:50;9.50;;;2.63;;
19495;SDS011;9888;48.606;9.630;2023-03-31T02:18:24;7.70;;;1.93;;
19495;SDS011;9888;48.606;9.630;2023-03-31T02:20:55;10.10;;;2.13;;
19495;SDS011;9888;48.606;9.630;2023-03-31T02:23:26;13.50;;;2.63;;
19495;SDS011;9888;48.606;9.630;2023-03-31T02:26:01;10.33;;;2.97;;
19495;SDS011;9888;48.606;9.630;2023-03-31T02:28:33;9.50;;;2.60;;
19495;SDS011;9888;48.606;9.630;2023-03-31T02:33:32;14.93;;;3.00;;
19495;SDS011;9888;48.606;9.630;2023-03-31T02:36:00;8.47;;;2.70;;
19495;SDS011;9888;48.606;9.630;2023-03-31T02:38:28;10.57;;;2.73;;
19495;SDS011;9888;48.606;9.630;2023-03-31T02:41:02;12.90;;;2.93;;
19495;SDS011;9888;48.606;9.630;2023-03-31T02:43:30;11.03;;;3.03;;
19495;SDS011;9888;48.606;9.630;2023-03-31T02:45:56;13.63;;;3.10;;
19495;SDS011;9888;48.606;9.630;2023-03-31T02:48:24;10.60;;;3.10;;
19495;SDS011;9888;48.606;9.630;2023-03-31T02:53:38;10.80;;;3.33;;
19495;SDS011;9888;48.606;9.630;2023-03-31T02:56:45;13.20;;;3.80;;
19495;SDS011;9888;48.606;9.630;2023-03-31T02:59:29;9.73;;;2.87;;
19495;SDS011;9888;48.606;9.630;2023-03-31T03:02:17;10.07;;;3.00;;
19495;SDS011;9888;48.606;9.630;2023-03-31T03:11:04;12.47;;;3.50;;
19495;SDS011;9888;48.606;9.630;2023-03-31T03:13:54;12.17;;;3.77;;
19495;SDS011;9888;48.606;9.630;2023-03-31T03:16:38;9.70;;;3.40;;
19495;SDS011;9888;48.606;9.630;2023-03-31T03:19:18;11.27;;;3.40;;
19495;SDS011;9888;48.606;9.630;2023-03-31T03:21:46;9.00;;;3.00;;
19495;SDS011;9888;48.606;9.630;2023-03-31T03:24:14;8.40;;;2.90;;
19495;SDS011;9888;48.606;9.630;2023-03-31T03:26:43;9.40;;;3.00;;
19495;SDS011;9888;48.606;9.630;2023-03-31T03:29:11;9.00;;;3.10;;
19495;SDS011;9888;48.606;9.630;2023-03-31T03:31:39;10.03;;;3.33;;
19495;SDS011;9888;48.606;9.630;2023-03-31T03:34:07;10.50;;;3.30;;
19495;SDS011;9888;48.606;9.630;2023-03-31T03:36:37;8.93;;;3.27;;
19495;SDS011;9888;48.606;9.630;2023-03-31T03:39:05;9.40;;;3.40;;
19495;SDS011;9888;48.606;9.630;2023-03-31T03:41:32;8.90;;;3.40;;
19495;SDS011;9888;48.606;9.630;2023-03-31T03:43:59;11.00;;;3.13;;
19495;SDS011;9888;48.606;9.630;2023-03-31T03:46:26;10.73;;;3.83;;
19495;SDS011;9888;48.606;9.630;2023-03-31T03:48:54;10.20;;;3.80;;
19495;SDS011;9888;48.606;9.630;2023-03-31T03:51:21;9.60;;;3.73;;
19495;SDS011;9888;48.606;9.630;2023-03-31T03:53:48;11.17;;;3.50;;
19495;SDS011;9888;48.606;9.630;2023-03-31T03:56:15;12.53;;;3.57;;
19495;SDS011;9888;48.606;9.630;2023-03-31T03:58:42;8.60;;;3.27;;
19495;SDS011;9888;48.606;9.630;2023-03-31T04:01:09;9.77;;;3.13;;
19495;SDS011;9888;48.606;9.630;2023-03-31T04:03:37;10.00;;;3.50;;
19495;SDS011;9888;48.606;9.630;2023-03-31T04:06:04;10.27;;;3.27;;
19495;SDS011;9888;48.606;9.630;2023-03-31T04:08:30;9.27;;;3.50;;
19495;SDS011;9888;48.606;9.630;2023-03-31T04:10:58;8.87;;;3.50;;
19495;SDS011;9888;48.606;9.630;2023-03-31T04:13:26;10.97;;;4.13;;
19495;SDS011;9888;48.606;9.630;2023-03-31T04:15:57;9.50;;;3.70;;
19495;SDS011;9888;48.606;9.630;2023-03-31T04:18:23;9.00;;;3.83;;
19495;SDS011;9888;48.606;9.630;2023-03-31T04:20:51;9.30;;;3.40;;
19495;SDS011;9888;48.606;9.630;2023-03-31T04:23:34;11.30;;;4.10;;
19495;SDS011;9888;48.606;9.630;2023-03-31T04:26:11;10.00;;;3.67;;
19495;SDS011;9888;48.606;9.630;2023-03-31T04:28:39;12.30;;;4.40;;
19495;SDS011;9888;48.606;9.630;2023-03-31T04:31:12;27.00;;;5.00;;
19495;SDS011;9888;48.606;9.630;2023-03-31T04:33:51;12.30;;;4.00;;
19495;SDS011;9888;48.606;9.630;2023-03-31T04:36:19;14.37;;;4.80;;
19495;SDS011;9888;48.606;9.630;2023-03-31T04:38:48;13.10;;;5.07;;
19495;SDS011;9888;48.606;9.630;2023-03-31T04:41:19;14.13;;;4.60;;
19495;SDS011;9888;48.606;9.630;2023-03-31T04:43:47;16.03;;;5.23;;
19495;SDS011;9888;48.606;9.630;2023-03-31T04:46:14;13.10;;;4.50;;
19495;SDS011;9888;48.606;9.630;2023-03-31T04:48:41;13.70;;;4.10;;
19495;SDS011;9888;48.606;9.630;2023-03-31T04:51:07;14.50;;;5.40;;
19495;SDS011;9888;48.606;9.630;2023-03-31T04:53:36;15.17;;;5.57;;
19495;SDS011;9888;48.606;9.630;2023-03-31T04:56:03;15.33;;;5.40;;
19495;SDS011;9888;48.606;9.630;2023-03-31T04:58:30;10.43;;;4.33;;
19495;SDS011;9888;48.606;9.630;2023-03-31T05:00:58;14.50;;;4.57;;
19495;SDS011;9888;48.606;9.630;2023-03-31T05:03:25;12.93;;;5.40;;
19495;SDS011;9888;48.606;9.630;2023-03-31T05:05:52;14.47;;;4.83;;
19495;SDS011;9888;48.606;9.630;2023-03-31T05:08:20;13.47;;;5.70;;
19495;SDS011;9888;48.606;9.630;2023-03-31T05:10:46;11.90;;;4.97;;
19495;SDS011;9888;48.606;9.630;2023-03-31T05:13:14;9.70;;;4.57;;
19495;SDS011;9888;48.606;9.630;2023-03-31T05:15:44;16.93;;;6.03;;
19495;SDS011;9888;48.606;9.630;2023-03-31T05:18:12;18.00;;;5.67;;
19495;SDS011;9888;48.606;9.630;2023-03-31T05:20:40;13.13;;;5.80;;
19495;SDS011;9888;48.606;9.630;2023-03-31T05:23:10;14.43;;;6.30;;
19495;SDS011;9888;48.606;9.630;2023-03-31T05:25:38;14.20;;;6.30;;
19495;SDS011;9888;48.606;9.630;2023-03-31T05:28:06;13.87;;;5.73;;
19495;SDS011;9888;48.606;9.630;2023-03-31T05:30:34;14.77;;;6.17;;
19495;SDS011;9888;48.606;9.630;2023-03-31T05:33:03;18.40;;;6.73;;
19495;SDS011;9888;48.606;9.630;2023-03-31T05:35:30;14.03;;;5.93;;
19495;SDS011;9888;48.606;9.630;2023-03-31T05:37:58;12.90;;;5.70;;
19495;SDS011;9888;48.606;9.630;2023-03-31T05:40:26;10.87;;;5.10;;
19495;SDS011;9888;48.606;9.630;2023-03-31T05:42:53;14.93;;;5.73;;
19495;SDS011;9888;48.606;9.630;2023-03-31T05:45:19;17.60;;;5.70;;
19495;SDS011;9888;48.606;9.630;2023-03-31T05:47:46;20.13;;;6.03;;
19495;SDS011;9888;48.606;9.630;2023-03-31T05:50:14;30.17;;;7.40;;
19495;SDS011;9888;48.606;9.630;2023-03-31T05:55:42;14.63;;;6.53;;
19495;SDS011;9888;48.606;9.630;2023-03-31T05:58:09;27.40;;;8.00;;
19495;SDS011;9888;48.606;9.630;2023-03-31T06:00:37;23.67;;;10.10;;
19495;SDS011;9888;48.606;9.630;2023-03-31T06:03:03;20.93;;;7.83;;
19495;SDS011;9888;48.606;9.630;2023-03-31T06:05:32;14.23;;;7.80;;
19495;SDS011;9888;48.606;9.630;2023-03-31T06:08:01;16.83;;;8.17;;
19495;SDS011;9888;48.606;9.630;2023-03-31T06:10:29;22.83;;;9.40;;
19495;SDS011;9888;48.606;9.630;2023-03-31T06:13:04;19.17;;;8.50;;
19495;SDS011;9888;48.606;9.630;2023-03-31T06:15:38;19.33;;;10.07;;
19495;SDS011;9888;48.606;9.630;2023-03-31T06:18:06;38.20;;;20.07;;
19495;SDS011;9888;48.606;9.630;2023-03-31T06:20:35;18.40;;;9.40;;
19495;SDS011;9888;48.606;9.630;2023-03-31T06:23:02;16.77;;;9.43;;
19495;SDS011;9888;48.606;9.630;2023-03-31T06:25:29;14.97;;;7.03;;
19495;SDS011;9888;48.606;9.630;2023-03-31T06:27:56;13.87;;;6.93;;
19495;SDS011;9888;48.606;9.630;2023-03-31T06:30:23;13.47;;;7.13;;
19495;SDS011;9888;48.606;9.630;2023-03-31T06:32:50;19.40;;;7.53;;
19495;SDS011;9888;48.606;9.630;2023-03-31T06:35:17;16.00;;;6.93;;
19495;SDS011;9888;48.606;9.630;2023-03-31T06:37:44;14.60;;;6.30;;
19495;SDS011;9888;48.606;9.630;2023-03-31T06:40:11;15.37;;;7.07;;
19495;SDS011;9888;48.606;9.630;2023-03-31T06:42:39;17.33;;;6.60;;
19495;SDS011;9888;48.606;9.630;2023-03-31T06:45:06;15.37;;;7.10;;
19495;SDS011;9888;48.606;9.630;2023-03-31T06:47:33;13.70;;;7.33;;
19495;SDS011;9888;48.606;9.630;2023-03-31T06:49:59;16.80;;;6.87;;
19495;SDS011;9888;48.606;9.630;2023-03-31T06:52:26;16.77;;;7.13;;
19495;SDS011;9888;48.606;9.630;2023-03-31T06:54:53;16.50;;;7.07;;
19495;SDS011;9888;48.606;9.630;2023-03-31T06:57:20;15.00;;;7.50;;
19495;SDS011;9888;48.606;9.630;2023-03-31T06:59:47;12.40;;;6.20;;
19495;SDS011;9888;48.606;9.630;2023-03-31T07:02:14;15.67;;;7.63;;
19495;SDS011;9888;48.606;9.630;2023-03-31T07:04:41;15.20;;;7.30;;
19495;SDS011;9888;48.606;9.630;2023-03-31T07:07:11;13.67;;;5.50;;
19495;SDS011;9888;48.606;9.630;2023-03-31T07:09:44;13.53;;;6.20;;
19495;SDS011;9888;48.606;9.630;2023-03-31T07:12:12;14.20;;;7.07;;
19495;SDS011;9888;48.606;9.630;2023-03-31T07:14:40;17.23;;;7.63;;
19495;SDS011;9888;48.606;9.630;2023-03-31T07:17:07;13.27;;;5.73;;
19495;SDS011;9888;48.606;9.630;2023-03-31T07:19:34;10.43;;;4.43;;
19495;SDS011;9888;48.606;9.630;2023-03-31T07:22:02;10.00;;;2.83;;
19495;SDS011;9888;48.606;9.630;2023-03-31T07:24:30;7.40;;;2.10;;
19495;SDS011;9888;48.606;9.630;2023-03-31T07:26:58;9.80;;;1.93;;
19495;SDS011;9888;48.606;9.630;2023-03-31T07:29:26;11.60;;;4.10;;
19495;SDS011;9888;48.606;9.630;2023-03-31T07:31:54;8.47;;;3.50;;
19495;SDS011;9888;48.606;9.630;2023-03-31T07:34:23;10.00;;;2.07;;
19495;SDS011;9888;48.606;9.630;2023-03-31T07:36:54;6.03;;;1.60;;
19495;SDS011;9888;48.606;9.630;2023-03-31T07:39:27;6.13;;;1.83;;
19495;SDS011;9888;48.606;9.630;2023-03-31T07:41:56;9.00;;;2.20;;
19495;SDS011;9888;48.606;9.630;2023-03-31T07:44:26;6.77;;;1.90;;
19495;SDS011;9888;48.606;9.630;2023-03-31T07:46:52;7.30;;;2.20;;
19495;SDS011;9888;48.606;9.630;2023-03-31T07:49:21;7.33;;;2.00;;
19495;SDS011;9888;48.606;9.630;2023-03-31T07:51:49;7.40;;;2.40;;
19495;SDS011;9888;48.606;9.630;2023-03-31T07:54:18;6.60;;;2.00;;
19495;SDS011;9888;48.606;9.630;2023-03-31T07:56:50;7.80;;;1.80;;
19495;SDS011;9888;48.606;9.630;2023-03-31T07:59:18;8.43;;;2.40;;
19495;SDS011;9888;48.606;9.630;2023-03-31T08:01:46;6.60;;;1.93;;
19495;SDS011;9888;48.606;9.630;2023-03-31T08:04:13;7.40;;;2.23;;
19495;SDS011;9888;48.606;9.630;2023-03-31T08:06:41;6.73;;;2.03;;
19495;SDS011;9888;48.606;9.630;2023-03-31T08:09:09;6.70;;;1.90;;
19495;SDS011;9888;48.606;9.630;2023-03-31T08:11:38;7.20;;;1.93;;
19495;SDS011;9888;48.606;9.630;2023-03-31T08:14:06;8.50;;;1.83;;
19495;SDS011;9888;48.606;9.630;2023-03-31T08:16:38;6.27;;;1.60;;
19495;SDS011;9888;48.606;9.630;2023-03-31T08:19:05;5.50;;;1.30;;
19495;SDS011;9888;48.606;9.630;2023-03-31T08:21:32;7.43;;;1.67;;
19495;SDS011;9888;48.606;9.630;2023-03-31T08:24:00;5.90;;;1.60;;
19495;SDS011;9888;48.606;9.630;2023-03-31T08:26:27;6.07;;;1.43;;
19495;SDS011;9888;48.606;9.630;2023-03-31T08:28:54;6.03;;;1.43;;
19495;SDS011;9888;48.606;9.630;2023-03-31T08:31:23;6.00;;;1.20;;
19495;SDS011;9888;48.606;9.630;2023-03-31T08:33:55;6.70;;;1.20;;
19495;SDS011;9888;48.606;9.630;2023-03-31T08:36:24;6.53;;;1.20;;
19495;SDS011;9888;48.606;9.630;2023-03-31T08:38:52;6.80;;;1.30;;
19495;SDS011;9888;48.606;9.630;2023-03-31T08:41:25;8.17;;;1.47;;
19495;SDS011;9888;48.606;9.630;2023-03-31T08:46:51;5.60;;;1.10;;
19495;SDS011;9888;48.606;9.630;2023-03-31T08:49:20;6.00;;;1.27;;
19495;SDS011;9888;48.606;9.630;2023-03-31T08:51:58;7.53;;;1.50;;
19495;SDS011;9888;48.606;9.630;2023-03-31T08:54:32;7.37;;;1.70;;
19495;SDS011;9888;48.606;9.630;2023-03-31T08:57:10;5.67;;;1.27;;
19495;SDS011;9888;48.606;9.630;2023-03-31T08:59:44;9.83;;;2.13;;
19495;SDS011;9888;48.606;9.630;2023-03-31T09:02:15;14.07;;;6.00;;
19495;SDS011;9888;48.606;9.630;2023-03-31T09:04:54;11.70;;;3.80;;
19495;SDS011;9888;48.606;9.630;2023-03-31T09:07:47;24.63;;;12.47;;
19495;SDS011;9888;48.606;9.630;2023-03-31T09:10:38;6.47;;;2.07;;
19495;SDS011;9888;48.606;9.630;2023-03-31T09:15:51;5.47;;;1.00;;
19495;SDS011;9888;48.606;9.630;2023-03-31T09:18:42;9.33;;;1.27;;
19495;SDS011;9888;48.606;9.630;2023-03-31T09:24:27;4.70;;;0.80;;
19495;SDS011;9888;48.606;9.630;2023-03-31T09:27:06;5.90;;;1.00;;
19495;SDS011;9888;48.606;9.630;2023-03-31T09:29:44;5.07;;;1.00;;
19495;SDS011;9888;48.606;9.630;2023-03-31T09:32:28;5.83;;;1.00;;
19495;SDS011;9888;48.606;9.630;2023-03-31T09:37:43;5.70;;;1.23;;
19495;SDS011;9888;48.606;9.630;2023-03-31T09:40:20;7.93;;;1.40;;
19495;SDS011;9888;48.606;9.630;2023-03-31T09:42:55;5.77;;;1.10;;
19495;SDS011;9888;48.606;9.630;2023-03-31T09:45:33;6.87;;;1.10;;
19495;SDS011;9888;48.606;9.630;2023-03-31T09:48:04;5.97;;;0.90;;
19495;SDS011;9888;48.606;9.630;2023-03-31T09:50:41;6.47;;;1.10;;
19495;SDS011;9888;48.606;9.630;2023-03-31T09:53:37;12.60;;;1.50;;
19495;SDS011;9888;48.606;9.630;2023-03-31T09:56:09;5.87;;;1.10;;
19495;SDS011;9888;48.606;9.630;2023-03-31T09:58:43;6.23;;;1.00;;
19495;SDS011;9888;48.606;9.630;2023-03-31T10:01:14;5.50;;;1.27;;
19495;SDS011;9888;48.606;9.630;2023-03-31T10:03:50;7.27;;;1.30;;
19495;SDS011;9888;48.606;9.630;2023-03-31T10:06:19;5.87;;;1.30;;
19495;SDS011;9888;48.606;9.630;2023-03-31T10:08:56;10.53;;;3.90;;
19495;SDS011;9888;48.606;9.630;2023-03-31T10:11:28;9.33;;;2.40;;
19495;SDS011;9888;48.606;9.630;2023-03-31T10:16:47;5.40;;;1.43;;
19495;SDS011;9888;48.606;9.630;2023-03-31T10:19:22;6.83;;;1.17;;
19495;SDS011;9888;48.606;9.630;2023-03-31T10:21:58;5.27;;;1.03;;
19495;SDS011;9888;48.606;9.630;2023-03-31T10:24:38;8.07;;;1.33;;
19495;SDS011;9888;48.606;9.630;2023-03-31T10:27:21;6.80;;;1.40;;
19495;SDS011;9888;48.606;9.630;2023-03-31T10:29:58;6.40;;;1.23;;
19495;SDS011;9888;48.606;9.630;2023-03-31T10:32:30;8.00;;;1.53;;
19495;SDS011;9888;48.606;9.630;2023-03-31T10:35:04;5.93;;;1.30;;
19495;SDS011;9888;48.606;9.630;2023-03-31T10:37:39;6.27;;;1.17;;
19495;SDS011;9888;48.606;9.630;2023-03-31T10:40:14;6.40;;;1.20;;
19495;SDS011;9888;48.606;9.630;2023-03-31T10:42:59;5.60;;;1.20;;
19495;SDS011;9888;48.606;9.630;2023-03-31T10:45:48;6.50;;;1.10;;
19495;SDS011;9888;48.606;9.630;2023-03-31T10:48:34;7.20;;;1.40;;
19495;SDS011;9888;48.606;9.630;2023-03-31T10:51:20;6.03;;;1.37;;
19495;SDS011;9888;48.606;9.630;2023-03-31T10:53:53;6.63;;;1.10;;
19495;SDS011;9888;48.606;9.630;2023-03-31T11:16:06;7.00;;;1.30;;
19495;SDS011;9888;48.606;9.630;2023-03-31T11:21:31;6.97;;;1.37;;
19495;SDS011;9888;48.606;9.630;2023-03-31T11:24:45;6.50;;;1.40;;
19495;SDS011;9888;48.606;9.630;2023-03-31T11:27:53;7.50;;;1.30;;
19495;SDS011;9888;48.606;9.630;2023-03-31T11:30:23;6.13;;;1.00;;
19495;SDS011;9888;48.606;9.630;2023-03-31T11:33:30;6.63;;;1.20;;
19495;SDS011;9888;48.606;9.630;2023-03-31T11:37:04;9.00;;;1.00;;
19495;SDS011;9888;48.606;9.630;2023-03-31T11:39:44;6.20;;;1.20;;
19495;SDS011;9888;48.606;9.630;2023-03-31T11:45:27;6.20;;;1.00;;
19495;SDS011;9888;48.606;9.630;2023-03-31T11:48:03;4.87;;;1.00;;
19495;SDS011;9888;48.606;9.630;2023-03-31T11:50:42;4.23;;;0.60;;
19495;SDS011;9888;48.606;9.630;2023-03-31T11:55:49;4.47;;;0.70;;
19495;SDS011;9888;48.606;9.630;2023-03-31T12:06:52;7.47;;;0.80;;
19495;SDS011;9888;48.606;9.630;2023-03-31T12:12:51;6.80;;;0.80;;
19495;SDS011;9888;48.606;9.630;2023-03-31T12:15:40;7.60;;;0.90;;
19495;SDS011;9888;48.606;9.630;2023-03-31T12:18:16;4.60;;;0.80;;
19495;SDS011;9888;48.606;9.630;2023-03-31T12:20:51;4.60;;;0.70;;
19495;SDS011;9888;48.606;9.630;2023-03-31T12:23:25;5.10;;;0.80;;
19495;SDS011;9888;48.606;9.630;2023-03-31T12:26:02;4.70;;;0.70;;
19495;SDS011;9888;48.606;9.630;2023-03-31T12:28:52;5.00;;;0.80;;
19495;SDS011;9888;48.606;9.630;2023-03-31T12:31:29;4.67;;;0.70;;
19495;SDS011;9888;48.606;9.630;2023-03-31T12:34:04;7.23;;;0.80;;
19495;SDS011;9888;48.606;9.630;2023-03-31T12:39:42;4.77;;;0.70;;
19495;SDS011;9888;48.606;9.630;2023-03-31T12:45:35;5.23;;;0.83;;
19495;SDS011;9888;48.606;9.630;2023-03-31T12:51:38;5.00;;;0.90;;
19495;SDS011;9888;48.606;9.630;2023-03-31T12:57:50;5.83;;;1.00;;
19495;SDS011;9888;48.606;9.630;2023-03-31T13:00:23;5.50;;;0.90;;
19495;SDS011;9888;48.606;9.630;2023-03-31T13:06:07;5.50;;;0.93;;
19495;SDS011;9888;48.606;9.630;2023-03-31T13:09:02;5.10;;;0.90;;
19495;SDS011;9888;48.606;9.630;2023-03-31T13:11:48;5.57;;;1.00;;
19495;SDS011;9888;48.606;9.630;2023-03-31T13:14:19;6.90;;;0.97;;
19495;SDS011;9888;48.606;9.630;2023-03-31T13:16:51;5.37;;;0.97;;
19495;SDS011;9888;48.606;9.630;2023-03-31T13:19:47;5.83;;;1.07;;
19495;SDS011;9888;48.606;9.630;2023-03-31T13:22:29;6.30;;;1.20;;
19495;SDS011;9888;48.606;9.630;2023-03-31T13:28:03;6.10;;;1.00;;
19495;SDS011;9888;48.606;9.630;2023-03-31T13:33:10;6.70;;;1.30;;
19495;SDS011;9888;48.606;9.630;2023-03-31T13:36:35;6.13;;;1.20;;
19495;SDS011;9888;48.606;9.630;2023-03-31T13:47:47;8.70;;;1.10;;
19495;SDS011;9888;48.606;9.630;2023-03-31T13:50:39;6.00;;;0.97;;
19495;SDS011;9888;48.606;9.630;2023-03-31T14:02:31;5.10;;;0.90;;
19495;SDS011;9888;48.606;9.630;2023-03-31T14:05:16;6.20;;;1.23;;
19495;SDS011;9888;48.606;9.630;2023-03-31T14:14:06;5.07;;;0.70;;
19495;SDS011;9888;48.606;9.630;2023-03-31T14:17:14;4.73;;;1.00;;
19495;SDS011;9888;48.606;9.630;2023-03-31T14:36:57;7.07;;;0.90;;
19495;SDS011;9888;48.606;9.630;2023-03-31T14:39:32;5.07;;;0.90;;
19495;SDS011;9888;48.606;9.630;2023-03-31T14:42:36;4.90;;;0.83;;
19495;SDS011;9888;48.606;9.630;2023-03-31T14:45:21;4.67;;;0.80;;
19495;SDS011;9888;48.606;9.630;2023-03-31T14:51:11;4.53;;;0.70;;
19495;SDS011;9888;48.606;9.630;2023-03-31T14:53:46;5.20;;;0.90;;
19495;SDS011;9888;48.606;9.630;2023-03-31T14:56:38;5.57;;;0.83;;
19495;SDS011;9888;48.606;9.630;2023-03-31T14:59:23;5.87;;;0.83;;
19495;SDS011;9888;48.606;9.630;2023-03-31T15:01:59;4.83;;;0.77;;
19495;SDS011;9888;48.606;9.630;2023-03-31T15:04:50;5.00;;;0.90;;
19495;SDS011;9888;48.606;9.630;2023-03-31T15:07:35;8.53;;;1.10;;
19495;SDS011;9888;48.606;9.630;2023-03-31T15:10:11;9.57;;;1.70;;
19495;SDS011;9888;48.606;9.630;2023-03-31T15:13:01;6.70;;;1.00;;
19495;SDS011;9888;48.606;9.630;2023-03-31T15:19:14;4.87;;;0.80;;
19495;SDS011;9888;48.606;9.630;2023-03-31T15:22:10;5.30;;;1.03;;
19495;SDS011;9888;48.606;9.630;2023-03-31T15:24:45;6.70;;;0.90;;
19495;SDS011;9888;48.606;9.630;2023-03-31T15:30:22;5.20;;;0.80;;
19495;SDS011;9888;48.606;9.630;2023-03-31T15:33:18;5.07;;;0.80;;
19495;SDS011;9888;48.606;9.630;2023-03-31T15:35:57;5.10;;;0.87;;
19495;SDS011;9888;48.606;9.630;2023-03-31T15:38:26;4.90;;;0.90;;
19495;SDS011;9888;48.606;9.630;2023-03-31T15:41:02;6.70;;;1.07;;
19495;SDS011;9888;48.606;9.630;2023-03-31T15:47:18;5.73;;;0.90;;
19495;SDS011;9888;48.606;9.630;2023-03-31T15:49:54;5.20;;;0.90;;
19495;SDS011;9888;48.606;9.630;2023-03-31T15:52:35;6.23;;;1.00;;
19495;SDS011;9888;48.606;9.630;2023-03-31T15:59:03;6.93;;;1.00;;
19495;SDS011;9888;48.606;9.630;2023-03-31T16:01:41;33.57;;;1.23;;
19495;SDS011;9888;48.606;9.630;2023-03-31T16:04:16;4.70;;;0.80;;
19495;SDS011;9888;48.606;9.630;2023-03-31T16:09:39;5.20;;;0.90;;
19495;SDS011;9888;48.606;9.630;2023-03-31T16:12:18;6.33;;;1.07;;
19495;SDS011;9888;48.606;9.630;2023-03-31T16:15:17;5.40;;;1.00;;
19495;SDS011;9888;48.606;9.630;2023-03-31T16:18:00;7.27;;;1.10;;
19495;SDS011;9888;48.606;9.630;2023-03-31T16:20:38;5.87;;;1.07;;
19495;SDS011;9888;48.606;9.630;2023-03-31T16:23:18;6.53;;;1.07;;
19495;SDS011;9888;48.606;9.630;2023-03-31T16:28:52;5.07;;;0.83;;
19495;SDS011;9888;48.606;9.630;2023-03-31T16:31:33;5.70;;;1.00;;
19495;SDS011;9888;48.606;9.630;2023-03-31T16:34:07;4.97;;;0.90;;
19495;SDS011;9888;48.606;9.630;2023-03-31T16:36:36;6.07;;;0.80;;
19495;SDS011;9888;48.606;9.630;2023-03-31T16:39:04;5.03;;;1.00;;
19495;SDS011;9888;48.606;9.630;2023-03-31T16:41:34;5.80;;;1.00;;
19495;SDS011;9888;48.606;9.630;2023-03-31T16:44:04;5.60;;;1.00;;
19495;SDS011;9888;48.606;9.630;2023-03-31T16:46:33;5.40;;;0.93;;
19495;SDS011;9888;48.606;9.630;2023-03-31T16:49:03;5.60;;;1.17;;
19495;SDS011;9888;48.606;9.630;2023-03-31T16:51:31;5.90;;;1.00;;
19495;SDS011;9888;48.606;9.630;2023-03-31T16:54:07;5.50;;;0.90;;
19495;SDS011;9888;48.606;9.630;2023-03-31T16:56:38;5.50;;;0.90;;
19495;SDS011;9888;48.606;9.630;2023-03-31T16:59:05;6.90;;;1.00;;
19495;SDS011;9888;48.606;9.630;2023-03-31T17:01:38;6.70;;;1.17;;
19495;SDS011;9888;48.606;9.630;2023-03-31T17:04:06;5.73;;;0.90;;
19495;SDS011;9888;48.606;9.630;2023-03-31T17:06:38;5.23;;;0.97;;
19495;SDS011;9888;48.606;9.630;2023-03-31T17:09:06;5.33;;;0.90;;
19495;SDS011;9888;48.606;9.630;2023-03-31T17:11:34;5.80;;;0.90;;
19495;SDS011;9888;48.606;9.630;2023-03-31T17:14:01;7.43;;;1.10;;
19495;SDS011;9888;48.606;9.630;2023-03-31T17:16:29;5.63;;;0.97;;
19495;SDS011;9888;48.606;9.630;2023-03-31T17:18:57;5.83;;;1.40;;
19495;SDS011;9888;48.606;9.630;2023-03-31T17:21:24;5.20;;;0.90;;
19495;SDS011;9888;48.606;9.630;2023-03-31T17:23:53;6.90;;;1.00;;
19495;SDS011;9888;48.606;9.630;2023-03-31T17:26:30;5.53;;;1.00;;
19495;SDS011;9888;48.606;9.630;2023-03-31T17:28:58;6.40;;;1.00;;
19495;SDS011;9888;48.606;9.630;2023-03-31T17:31:33;5.07;;;0.90;;
19495;SDS011;9888;48.606;9.630;2023-03-31T17:34:03;5.20;;;0.90;;
19495;SDS011;9888;48.606;9.630;2023-03-31T17:36:40;5.43;;;0.97;;
19495;SDS011;9888;48.606;9.630;2023-03-31T17:39:09;5.53;;;0.97;;
19495;SDS011;9888;48.606;9.630;2023-03-31T17:41:37;6.10;;;0.97;;
19495;SDS011;9888;48.606;9.630;2023-03-31T17:44:06;9.00;;;0.97;;
19495;SDS011;9888;48.606;9.630;2023-03-31T17:46:34;5.53;;;0.87;;
19495;SDS011;9888;48.606;9.630;2023-03-31T17:49:03;5.70;;;0.80;;
19495;SDS011;9888;48.606;9.630;2023-03-31T17:51:39;7.57;;;1.03;;
19495;SDS011;9888;48.606;9.630;2023-03-31T17:54:12;6.87;;;0.90;;
19495;SDS011;9888;48.606;9.630;2023-03-31T17:56:41;5.13;;;0.80;;
19495;SDS011;9888;48.606;9.630;2023-03-31T17:59:18;4.63;;;0.83;;
19495;SDS011;9888;48.606;9.630;2023-03-31T18:01:49;6.00;;;0.90;;
19495;SDS011;9888;48.606;9.630;2023-03-31T18:07:56;5.53;;;0.90;;
19495;SDS011;9888;48.606;9.630;2023-03-31T18:10:32;5.30;;;0.90;;
19495;SDS011;9888;48.606;9.630;2023-03-31T18:13:05;5.77;;;0.90;;
19495;SDS011;9888;48.606;9.630;2023-03-31T18:15:33;4.87;;;1.00;;
19495;SDS011;9888;48.606;9.630;2023-03-31T18:18:04;6.60;;;1.13;;
19495;SDS011;9888;48.606;9.630;2023-03-31T18:20:32;5.90;;;1.10;;
19495;SDS011;9888;48.606;9.630;2023-03-31T18:22:59;9.80;;;1.23;;
19495;SDS011;9888;48.606;9.630;2023-03-31T18:25:29;10.87;;;1.03;;
19495;SDS011;9888;48.606;9.630;2023-03-31T18:28:03;6.40;;;1.20;;
19495;SDS011;9888;48.606;9.630;2023-03-31T18:30:31;5.20;;;1.10;;
19495;SDS011;9888;48.606;9.630;2023-03-31T18:32:58;8.43;;;1.20;;
19495;SDS011;9888;48.606;9.630;2023-03-31T18:35:34;7.70;;;1.03;;
19495;SDS011;9888;48.606;9.630;2023-03-31T18:38:08;7.47;;;1.30;;
19495;SDS011;9888;48.606;9.630;2023-03-31T18:40:45;5.40;;;1.00;;
19495;SDS011;9888;48.606;9.630;2023-03-31T18:43:20;5.93;;;1.00;;